createdAt,value
2018-07-28T00:03:52.359Z,52.20
2018-07-28T00:06:24.457Z,52.30
2018-07-28T00:08:58.220Z,52.30
2018-07-28T00:11:26.695Z,52.40
2018-07-28T00:13:55.276Z,52.60
2018-07-28T00:16:25.796Z,52.50
2018-07-28T00:18:56.543Z,52.60
2018-07-28T00:23:54.344Z,53.00
2018-07-28T00:26:23.707Z,53.00
2018-07-28T00:29:08.214Z,53.10
2018-07-28T00:31:37.460Z,53.30
2018-07-28T00:34:07.300Z,53.40
2018-07-28T00:36:35.763Z,53.50
2018-07-28T00:39:06.920Z,53.50
2018-07-28T00:41:35.702Z,53.60
2018-07-28T00:44:05.453Z,53.60
2018-07-28T00:46:34.762Z,53.70
2018-07-28T00:49:03.627Z,53.70
2018-07-28T00:54:14.149Z,53.90
2018-07-28T00:56:44.037Z,54.00
2018-07-28T00:59:13.151Z,54.00
2018-07-28T01:01:42.516Z,54.00
2018-07-28T01:04:12.595Z,54.10
2018-07-28T01:06:42.554Z,54.10
2018-07-28T01:09:16.226Z,54.30
2018-07-28T01:11:45.843Z,54.50
2018-07-28T01:14:14.152Z,54.50
2018-07-28T01:16:43.336Z,54.70
2018-07-28T01:19:11.666Z,55.00
2018-07-28T01:21:40.472Z,55.20
2018-07-28T01:24:09.039Z,55.40
2018-07-28T01:26:38.041Z,55.60
2018-07-28T01:29:12.106Z,55.90
2018-07-28T01:31:41.712Z,56.00
2018-07-28T01:34:10.025Z,56.10
2018-07-28T01:36:40.210Z,56.30
2018-07-28T01:39:10.041Z,56.50
2018-07-28T01:41:38.362Z,56.70
2018-07-28T01:44:07.239Z,56.90
2018-07-28T01:46:35.503Z,57.10
2018-07-28T01:49:04.703Z,57.40
2018-07-28T01:51:34.967Z,57.70
2018-07-28T01:54:03.233Z,58.00
2018-07-28T01:56:31.871Z,58.20
2018-07-28T01:59:00.249Z,58.40
2018-07-28T02:01:28.857Z,58.60
2018-07-28T02:03:57.566Z,58.60
2018-07-28T02:06:26.280Z,59.20
2018-07-28T02:08:54.483Z,58.70
2018-07-28T02:11:22.831Z,58.70
2018-07-28T02:13:51.059Z,58.60
2018-07-28T02:16:19.398Z,58.50
2018-07-28T02:18:47.733Z,58.60
2018-07-28T02:21:16.018Z,58.50
2018-07-28T02:23:44.268Z,58.50
2018-07-28T02:26:13.465Z,58.80
2018-07-28T02:28:41.878Z,58.90
2018-07-28T02:31:10.334Z,59.00
2018-07-28T02:33:38.577Z,59.10
2018-07-28T02:36:07.534Z,59.20
2018-07-28T02:38:35.854Z,59.40
2018-07-28T02:41:04.151Z,59.60
2018-07-28T02:43:32.463Z,59.70
2018-07-28T02:46:00.764Z,59.90
2018-07-28T02:48:29.075Z,60.00
2018-07-28T02:50:57.294Z,60.20
2018-07-28T02:53:25.829Z,60.20
2018-07-28T02:55:54.177Z,60.40
2018-07-28T02:58:22.839Z,60.50
2018-07-28T03:00:51.172Z,60.50
2018-07-28T03:03:19.555Z,60.50
2018-07-28T03:05:47.898Z,60.60
2018-07-28T03:08:16.641Z,60.60
2018-07-28T03:10:45.151Z,60.60
2018-07-28T03:13:13.758Z,60.60
2018-07-28T03:15:42.051Z,60.70
2018-07-28T03:18:15.724Z,60.80
2018-07-28T03:20:45.747Z,60.90
2018-07-28T03:23:14.299Z,60.90
2018-07-28T03:25:42.831Z,61.00
2018-07-28T03:28:11.144Z,61.00
2018-07-28T03:30:39.620Z,61.10
2018-07-28T03:33:08.347Z,61.20
2018-07-28T03:35:36.929Z,61.20
2018-07-28T03:38:05.291Z,61.30
2018-07-28T03:40:34.302Z,61.30
2018-07-28T03:43:03.407Z,61.40
2018-07-28T03:45:32.310Z,61.40
2018-07-28T03:48:05.850Z,61.50
2018-07-28T03:50:34.720Z,61.60
2018-07-28T03:53:02.971Z,61.60
2018-07-28T03:55:32.412Z,61.60
2018-07-28T03:58:00.754Z,61.70
2018-07-28T04:02:57.114Z,61.90
2018-07-28T04:05:25.414Z,61.90
2018-07-28T04:07:53.717Z,61.90
2018-07-28T04:10:21.995Z,62.00
2018-07-28T04:12:50.815Z,62.00
2018-07-28T04:15:19.183Z,62.00
2018-07-28T04:17:55.744Z,62.00
2018-07-28T04:20:25.272Z,62.10
2018-07-28T04:22:54.495Z,62.10
2018-07-28T04:25:22.950Z,62.20
2018-07-28T04:27:52.388Z,62.20
2018-07-28T04:30:20.677Z,62.20
2018-07-28T04:32:51.303Z,62.30
2018-07-28T04:35:19.538Z,62.30
2018-07-28T04:37:49.307Z,62.50
2018-07-28T04:40:18.777Z,62.50
2018-07-28T04:42:47.521Z,62.60
2018-07-28T04:45:16.205Z,62.50
2018-07-28T04:47:45.138Z,62.60
2018-07-28T04:50:14.426Z,62.60
2018-07-28T04:52:42.680Z,62.60
2018-07-28T04:55:11.609Z,62.60
2018-07-28T04:57:50.280Z,62.60
2018-07-28T05:00:19.580Z,62.70
2018-07-28T05:02:50.559Z,62.70
2018-07-28T05:05:20.870Z,62.80
2018-07-28T05:08:00.856Z,62.80
2018-07-28T05:10:34.202Z,63.00
2018-07-28T05:13:08.180Z,62.80
2018-07-28T05:15:37.712Z,62.90
2018-07-28T05:18:45.641Z,63.50
2018-07-28T05:21:16.222Z,62.80
2018-07-28T05:23:45.230Z,62.80
2018-07-28T05:26:14.443Z,62.90
2018-07-28T05:32:05.595Z,62.80
2018-07-28T05:34:37.971Z,62.90
2018-07-28T05:37:17.215Z,62.90
2018-07-28T05:43:31.634Z,63.00
2018-07-28T05:46:13.413Z,63.00
2018-07-28T05:51:41.000Z,63.00
2018-07-28T06:05:42.979Z,62.10
2018-07-28T06:19:36.782Z,61.20
2018-07-28T06:22:15.700Z,61.00
2018-07-28T06:24:50.253Z,60.60
2018-07-28T06:27:23.762Z,60.50
2018-07-28T06:30:00.135Z,60.10
2018-07-28T06:32:41.113Z,60.00
2018-07-28T06:35:22.994Z,59.90
2018-07-28T06:37:57.935Z,59.60
2018-07-28T06:48:53.343Z,58.70
2018-07-28T06:51:37.655Z,58.30
2018-07-28T06:57:00.156Z,57.90
2018-07-28T07:02:20.659Z,57.30
2018-07-28T07:05:02.260Z,56.90
2018-07-28T07:10:28.515Z,56.70
2018-07-28T07:13:04.299Z,56.30
2018-07-28T07:15:39.431Z,55.90
2018-07-28T07:20:51.025Z,55.10
2018-07-28T07:31:46.768Z,54.10
2018-07-28T07:34:29.848Z,54.00
2018-07-28T08:14:09.121Z,49.60
2018-07-28T08:16:45.156Z,49.20
2018-07-28T08:28:43.168Z,48.20
2018-07-28T08:34:11.323Z,47.50
2018-07-28T08:39:41.391Z,47.50
2018-07-28T09:17:59.168Z,42.60
2018-07-28T09:23:33.399Z,41.10
2018-07-28T09:26:18.831Z,41.00
2018-07-28T09:29:01.385Z,40.70
2018-07-28T09:31:48.184Z,40.90
2018-07-28T09:34:37.512Z,40.80
2018-07-28T09:43:08.228Z,40.10
2018-07-28T09:56:46.521Z,40.10
2018-07-28T09:59:22.646Z,39.90
2018-07-28T10:01:51.365Z,39.50
2018-07-28T10:04:30.363Z,39.30
2018-07-28T10:07:09.596Z,39.40
2018-07-28T10:09:50.030Z,39.90
2018-07-28T10:12:28.847Z,40.70
2018-07-28T10:14:58.888Z,41.40
2018-07-28T10:20:08.640Z,42.90
2018-07-28T10:22:52.685Z,43.10
2018-07-28T10:28:21.743Z,42.80
2018-07-28T10:30:51.865Z,42.50
2018-07-28T10:33:21.764Z,42.00
2018-07-28T10:35:56.002Z,41.30
2018-07-28T10:38:30.789Z,40.70
2018-07-28T10:41:00.519Z,38.80
2018-07-28T10:43:30.594Z,37.20
2018-07-28T10:46:02.293Z,36.10
2018-07-28T10:51:17.580Z,35.30
2018-07-28T10:56:38.826Z,34.80
2018-07-28T11:02:12.025Z,34.20
2018-07-28T11:04:43.792Z,34.00
2018-07-28T11:07:12.948Z,34.10
2018-07-28T11:09:52.450Z,34.20
2018-07-28T11:12:23.069Z,34.30
2018-07-28T11:14:52.265Z,34.40
2018-07-28T11:17:23.873Z,34.40
2018-07-28T11:20:00.538Z,34.30
2018-07-28T11:22:37.567Z,33.90
2018-07-28T11:25:17.859Z,34.10
2018-07-28T11:28:09.504Z,34.50
2018-07-28T11:33:28.679Z,34.60
2018-07-28T11:41:08.087Z,34.50
2018-07-28T11:43:54.647Z,34.40
2018-07-28T11:46:25.017Z,34.40
2018-07-28T11:48:58.150Z,34.70
2018-07-28T11:51:41.125Z,35.00
2018-07-28T11:54:14.892Z,35.10
2018-07-28T11:56:45.608Z,35.10
2018-07-28T11:59:16.889Z,34.90
2018-07-28T12:01:46.815Z,34.80
2018-07-28T12:04:16.349Z,35.00
2018-07-28T12:06:52.325Z,35.10
2018-07-28T12:09:24.922Z,35.50
2018-07-28T12:11:59.333Z,35.80
2018-07-28T12:14:30.365Z,35.90
2018-07-28T12:17:02.196Z,36.10
2018-07-28T12:19:42.204Z,36.10
2018-07-28T12:22:13.977Z,36.20
2018-07-28T12:24:45.738Z,36.70
2018-07-28T12:27:18.088Z,36.10
2018-07-28T12:29:52.589Z,36.20
2018-07-28T12:32:28.590Z,35.70
2018-07-28T12:34:58.297Z,35.60
2018-07-28T12:37:27.711Z,36.00
2018-07-28T12:39:56.045Z,36.10
2018-07-28T12:42:27.234Z,36.50
2018-07-28T12:44:56.798Z,36.70
2018-07-28T12:47:29.252Z,36.80
2018-07-28T12:50:02.846Z,36.90
2018-07-28T12:52:33.827Z,37.00
2018-07-28T12:55:06.022Z,37.00
2018-07-28T12:57:36.442Z,37.00
2018-07-28T13:03:26.774Z,36.90
2018-07-28T13:06:04.007Z,37.10
2018-07-28T13:08:46.076Z,37.10
2018-07-28T13:11:23.314Z,37.00
2018-07-28T13:13:57.086Z,37.20
2018-07-28T13:16:29.795Z,37.60
2018-07-28T13:19:15.448Z,37.70
2018-07-28T13:21:50.273Z,37.50
2018-07-28T13:24:28.725Z,37.60
2018-07-28T13:27:02.065Z,37.80
2018-07-28T13:29:58.517Z,37.70
2018-07-28T13:32:27.791Z,37.80
2018-07-28T13:34:59.797Z,37.80
2018-07-28T13:37:29.882Z,37.80
2018-07-28T13:39:59.970Z,37.70
2018-07-28T13:42:32.985Z,37.70
2018-07-28T13:45:03.359Z,37.80
2018-07-28T13:47:34.110Z,37.70
2018-07-28T13:52:35.295Z,37.60
2018-07-28T13:55:05.493Z,37.70
2018-07-28T13:57:35.507Z,37.70
2018-07-28T14:00:11.665Z,37.60
2018-07-28T14:02:40.524Z,37.30
2018-07-28T14:05:08.787Z,37.30
2018-07-28T14:07:48.387Z,37.50
2018-07-28T14:10:23.690Z,37.00
2018-07-28T14:12:52.534Z,37.00
2018-07-28T14:15:21.133Z,37.40
2018-07-28T14:17:53.373Z,37.40
2018-07-28T14:20:21.723Z,37.10
2018-07-28T14:22:50.656Z,37.50
2018-07-28T14:25:19.631Z,37.70
2018-07-28T14:27:51.096Z,37.90
2018-07-28T14:30:22.458Z,37.90
2018-07-28T14:32:52.058Z,38.00
2018-07-28T14:35:22.119Z,38.20
2018-07-28T14:38:05.182Z,38.40
2018-07-28T14:40:40.219Z,38.40
2018-07-28T14:43:09.644Z,38.30
2018-07-28T14:45:38.650Z,38.10
2018-07-28T14:48:09.240Z,37.90
2018-07-28T14:50:42.162Z,37.90
2018-07-28T14:53:11.169Z,38.00
2018-07-28T14:55:44.425Z,38.10
2018-07-28T14:58:13.675Z,38.10
2018-07-28T15:00:43.683Z,38.00
2018-07-28T15:03:14.722Z,37.20
2018-07-28T15:05:49.247Z,35.90
2018-07-28T15:08:48.655Z,34.70
2018-07-28T15:11:24.704Z,33.60
2018-07-28T15:14:02.270Z,32.30
2018-07-28T15:16:35.150Z,31.20
2018-07-28T15:19:09.499Z,31.50
2018-07-28T15:21:40.124Z,31.60
2018-07-28T15:24:12.631Z,30.30
2018-07-28T15:26:42.742Z,29.90
2018-07-28T15:29:17.822Z,29.70
2018-07-28T15:31:48.818Z,29.40
2018-07-28T15:34:18.462Z,29.00
2018-07-28T15:36:51.165Z,28.70
2018-07-28T15:39:20.001Z,28.50
2018-07-28T15:41:49.286Z,28.30
2018-07-28T15:44:17.999Z,28.20
2018-07-28T15:49:54.709Z,27.90
2018-07-28T15:52:28.972Z,27.80
2018-07-28T15:54:57.680Z,27.30
2018-07-28T15:57:29.108Z,27.40
2018-07-28T16:00:00.723Z,27.30
2018-07-28T16:02:34.105Z,27.20
2018-07-28T16:07:32.008Z,27.00
2018-07-28T16:10:02.043Z,27.10
2018-07-28T16:12:32.140Z,27.20
2018-07-28T16:15:00.715Z,27.30
2018-07-28T16:17:35.341Z,28.00
2018-07-28T16:20:03.934Z,27.50
2018-07-28T16:22:34.110Z,27.40
2018-07-28T16:25:07.200Z,27.70
2018-07-28T16:27:35.714Z,28.00
2018-07-28T16:30:05.110Z,28.00
2018-07-28T16:32:37.186Z,28.10
2018-07-28T16:35:08.815Z,28.80
2018-07-28T16:40:05.984Z,32.30
2018-07-28T16:42:38.285Z,33.20
2018-07-28T16:48:26.399Z,35.90
2018-07-28T16:51:00.533Z,37.10
2018-07-28T16:53:39.235Z,37.50
2018-07-28T16:56:14.199Z,37.80
2018-07-28T16:58:44.621Z,38.60
2018-07-28T17:03:57.464Z,39.80
2018-07-28T17:06:28.806Z,40.50
2018-07-28T17:12:02.517Z,41.10
2018-07-28T17:14:34.878Z,41.00
2018-07-28T17:17:07.034Z,41.20
2018-07-28T17:28:28.653Z,41.90
2018-07-28T17:31:03.398Z,42.20
2018-07-28T17:33:42.034Z,42.40
2018-07-28T17:36:22.934Z,42.60
2018-07-28T17:39:02.432Z,43.00
2018-07-28T17:41:40.046Z,43.30
2018-07-28T17:47:04.015Z,44.20
2018-07-28T17:53:09.664Z,45.20
2018-07-28T17:58:47.777Z,46.20
2018-07-28T18:01:22.164Z,46.50
2018-07-28T18:04:04.559Z,46.80
2018-07-28T18:06:40.389Z,47.10
2018-07-28T18:09:14.112Z,47.50
2018-07-28T18:11:52.065Z,47.90
2018-07-28T18:14:36.844Z,48.20
2018-07-28T18:17:11.603Z,48.50
2018-07-28T18:26:51.523Z,49.40
2018-07-28T19:02:02.427Z,52.20
2018-07-28T19:04:39.662Z,52.20
2018-07-28T19:07:20.303Z,52.50
2018-07-28T19:14:50.782Z,52.80
2018-07-28T19:17:30.828Z,53.10
2018-07-28T19:20:26.202Z,53.20
2018-07-28T19:32:07.809Z,54.60
2018-07-28T19:34:53.951Z,55.10
2018-07-28T19:40:30.127Z,56.20
2018-07-28T19:56:17.626Z,57.80
2018-07-28T19:59:27.293Z,57.70
2018-07-28T20:02:15.337Z,57.80
2018-07-28T20:04:56.057Z,57.70
2018-07-28T20:10:29.557Z,57.70
2018-07-28T20:19:59.006Z,59.00
2018-07-28T20:28:09.875Z,60.90
2018-07-28T20:30:48.035Z,61.00
2018-07-28T20:33:24.974Z,59.00
2018-07-28T20:42:19.842Z,57.50
2018-07-28T20:47:29.590Z,57.70
2018-07-28T20:52:52.695Z,58.30
2018-07-28T20:55:23.024Z,58.30
2018-07-28T20:57:52.854Z,58.10
2018-07-28T21:00:31.356Z,58.00
2018-07-28T21:03:05.654Z,58.10
2018-07-28T21:05:54.630Z,58.10
2018-07-28T21:08:26.035Z,57.90
2018-07-28T21:10:55.079Z,58.00
2018-07-28T21:15:54.432Z,58.10
2018-07-28T21:18:33.399Z,58.10
2018-07-28T21:21:53.451Z,58.10
2018-07-28T21:24:27.897Z,57.90
2018-07-28T21:26:57.227Z,57.50
2018-07-28T21:29:57.059Z,57.50
2018-07-28T21:32:27.002Z,57.50
2018-07-28T21:35:03.713Z,57.40
2018-07-28T21:37:32.309Z,57.40
2018-07-28T21:40:01.831Z,57.20
2018-07-28T21:42:31.323Z,57.40
2018-07-28T21:45:03.431Z,57.50
2018-07-28T21:47:33.455Z,57.40
2018-07-28T21:50:10.272Z,57.10
2018-07-28T21:52:41.482Z,57.00
2018-07-28T21:55:09.799Z,56.90
2018-07-28T21:57:38.092Z,56.70
2018-07-28T22:00:09.831Z,56.60
2018-07-28T22:02:38.401Z,56.80
2018-07-28T22:05:13.838Z,57.30
2018-07-28T22:07:48.626Z,58.10
2018-07-28T22:10:18.101Z,59.00
2018-07-28T22:12:50.565Z,59.20
2018-07-28T22:15:20.743Z,59.60
2018-07-28T22:17:49.404Z,59.60
2018-07-28T22:20:23.102Z,59.50
2018-07-28T22:22:53.271Z,59.40
2018-07-28T22:25:29.235Z,59.50
2018-07-28T22:28:03.099Z,59.50
2018-07-28T22:36:08.532Z,59.90
2018-07-28T22:38:42.024Z,60.20
2018-07-28T22:41:11.671Z,60.40
2018-07-28T22:46:19.846Z,60.70
2018-07-28T22:48:59.088Z,61.50
2018-07-28T22:51:30.452Z,61.10
2018-07-28T22:54:04.567Z,61.00
2018-07-28T22:56:34.926Z,61.00
2018-07-28T22:59:13.533Z,61.00
2018-07-28T23:01:42.032Z,61.20
2018-07-28T23:04:10.963Z,61.20
2018-07-28T23:06:39.326Z,61.10
2018-07-28T23:09:09.500Z,61.00
2018-07-28T23:14:06.244Z,60.50
2018-07-28T23:16:36.137Z,60.20
2018-07-28T23:19:04.828Z,60.10
2018-07-28T23:21:33.166Z,60.40
2018-07-28T23:24:02.432Z,60.60
2018-07-28T23:26:32.055Z,60.60
2018-07-28T23:29:05.689Z,61.00
2018-07-28T23:31:34.286Z,61.40
2018-07-28T23:34:02.677Z,61.70
2018-07-28T23:36:31.814Z,61.80
2018-07-28T23:39:00.305Z,62.00
2018-07-28T23:41:28.609Z,62.00
2018-07-28T23:43:57.282Z,62.00
2018-07-28T23:46:25.582Z,61.80
2018-07-28T23:48:54.282Z,61.50
2018-07-28T23:51:22.718Z,61.40
2018-07-28T23:53:51.054Z,61.40
2018-07-28T23:58:47.578Z,61.40
